METAR Data
IDs: Format: Raw Decoded Include TAF

Data at: 0144 UTC 26 Apr 2019

PAMC 260053Z AUTO 04011G18KT 10SM CLR 07/M09 A3020 RMK AO2 SLP235 T00671094 TSNO
PAMC 252353Z AUTO 04011KT 10SM CLR 07/M09 A3020 RMK AO2 SLP235 T00671094 10067 20017 52003 TSNO
PAMC 252253Z AUTO 02009KT 10SM CLR 06/M08 A3020 RMK AO2 SLP235 T00611083 TSNO
PAMC 252153Z AUTO 01008KT 10SM CLR 06/M07 A3020 RMK AO2 SLP232 T00611067 TSNO
PAMC 252053Z AUTO 02008KT 10SM CLR 05/M06 A3019 RMK AO2 SLP232 T00501056 53002 TSNO
PAMC 251953Z AUTO 35006KT 10SM CLR 04/M04 A3019 RMK AO2 SLP230 T00441044 TSNO
PAMC 251853Z AUTO 02007KT 10SM CLR 03/M05 A3019 RMK AO2 SLP229 T00281050 TSNO
PAMC 251753Z AUTO 35003KT 10SM CLR 02/M06 A3019 RMK AO2 SLP229 T00171056 10017 21061 53006 TSNO
PAMC 251653Z AUTO 00000KT 10SM CLR M02/M07 A3018 RMK AO2 SLP227 T10171067 TSNO
PAMC 251553Z AUTO 28003KT 10SM CLR M04/M08 A3017 RMK AO2 SLP225 T10391078 TSNO
PAMC 251453Z AUTO 00000KT 10SM CLR M06/M08 A3017 RMK AO2 SLP223 T10561083 53006 TSNO $
PAMC 251353Z AUTO VRB03KT 10SM CLR M03/M08 A3016 RMK AO2 SLP219 T10281078 TSNO $
PAMC 251253Z AUTO 36005KT 10SM CLR M03/M08 A3016 RMK AO2 SLP218 T10281083 TSNO $
PAMC 251153Z AUTO 00000KT 10SM CLR M04/M08 A3015 RMK AO2 SLP216 T10441078 10033 21050 51013 TSNO $
PAMC 251053Z AUTO 36004KT 10SM CLR M02/M08 A3014 RMK AO2 SLP214 T10221078 TSNO $
PAMC 250953Z AUTO 00000KT 10SM CLR M02/M07 A3013 RMK AO2 SLP209 T10171067 TSNO $
PAMC 250853Z AUTO 06005KT 10SM CLR 00/M06 A3011 RMK AO2 SLP203 T00001061 400611094 51012 TSNO $
PAMC 250753Z AUTO 08006KT 10SM CLR 02/M07 A3010 RMK AO2 SLP200 T00221072 TSNO $
PAMC 250653Z AUTO 08006KT 10SM CLR 03/M07 A3009 RMK AO2 SLP197 T00281072 TSNO $
PAMC 250553Z AUTO 02003KT 10SM CLR 02/M06 A3008 RMK AO2 SLP191 T00171056 10061 20017 53006 TSNO $
PAMC 250453Z AUTO 06006KT 10SM BKN065 BKN090 04/M07 A3006 RMK AO2 SLP187 T00441067 TSNO $
PAMC 250353Z AUTO 03005KT 10SM FEW080 SCT095 06/M08 A3006 RMK AO2 SLP185 T00561078 TSNO $
PAMC 250253Z AUTO 05006KT 10SM FEW090 06/M08 A3006 RMK AO2 SLP186 T00561078 55002 TSNO $
PAMC 250153Z AUTO 02009KT 10SM BKN075 BKN090 06/M08 A3005 RMK AO2 SLP185 T00561083 TSNO $
PAMC 250053Z AUTO 01010KT 10SM FEW070 06/M08 A3006 RMK AO2 SLP186 T00561078 TSNO $
PAMC 242353Z AUTO 36010KT 10SM CLR 05/M07 A3006 RMK AO2 SLP188 T00501072 10050 21022 56004 TSNO $
PAMC 242153Z AUTO 02008KT 10SM CLR 04/M07 A3007 RMK AO2 SLP190 T00391072 TSNO $
PAMC 241953Z AUTO 01006KT 10SM CLR 01/M08 A3008 RMK AO2 SLP194 T00061083 TSNO $
PAMC 241853Z AUTO 01008KT 10SM CLR M01/M08 A3007 RMK AO2 SLP191 T10111083 TSNO $
PAMC 241653Z AUTO 32006KT 10SM CLR M05/M10 A3007 RMK AO2 SLP191 T10501100 TSNO $
PAMC 241553Z AUTO 30005KT 10SM CLR M08/M11 A3006 RMK AO2 SLP187 T10831111 TSNO $
PAMC 241453Z AUTO 30010KT 10SM CLR M09/M12 A3004 RMK AO2 SLP181 T10891117 51009 TSNO $
PAMC 241353Z AUTO 27006KT 10SM CLR M09/M12 A3004 RMK AO2 SLP179 T10891117 TSNO $